Termez, Uzbekistan
Current Conditions -  °F | °C
As of 3:30 PM on Saturday 22 Nov 2014 (Local Time) from UTST Reporting Station
Clear Clear  
Wind Chill: 61°   Ceiling: Unl
Heat Index: 61°   Visibility: 6mi
Dew Point: 34°   Wind: 9mph
Humidity: 36%   Direction: 50°NE
Pressure: 30.18"   Gusts: NA
Location:  37.22°N, 67.27°E
Report Text: UTST 221030Z 05008KT CAVOK 16/01 Q1022 R88/CLRD70 NOSIG
Loading
Personal Weather Stations






























Interactive Weather Map New forecast layout! Learn more

10-Day Weather Forecast

Advertisements
Track Severe Weather on mobile